createdAt,value
2022-08-25T00:01:02.903Z,100999.28
2022-08-25T00:03:04.996Z,100993.00
2022-08-25T00:05:08.176Z,100992.19
2022-08-25T00:07:12.758Z,100994.25
2022-08-25T00:09:24.109Z,100992.97
2022-08-25T00:11:29.018Z,100993.78
2022-08-25T00:13:31.381Z,100992.75
2022-08-25T00:15:35.983Z,100993.38
2022-08-25T00:17:38.065Z,100988.53
2022-08-25T00:19:40.021Z,100984.78
2022-08-25T00:21:43.755Z,100983.94
2022-08-25T00:23:46.816Z,100981.22
2022-08-25T00:25:49.267Z,100978.47
2022-08-25T00:27:51.807Z,100972.22
2022-08-25T00:29:55.684Z,100974.72
2022-08-25T00:31:58.232Z,100974.72
2022-08-25T00:34:01.521Z,100969.50
2022-08-25T00:36:05.229Z,100976.81
2022-08-25T00:38:10.272Z,100965.34
2022-08-25T00:40:18.618Z,100968.06
2022-08-25T00:42:21.239Z,100970.56
2022-08-25T00:44:26.655Z,100967.00
2022-08-25T00:46:38.289Z,100972.66
2022-08-25T00:48:43.805Z,100971.81
2022-08-25T00:50:45.697Z,100976.22
2022-08-25T00:52:52.655Z,100972.03
2022-08-25T00:55:29.662Z,100980.41
2022-08-25T00:57:36.540Z,100974.97
2022-08-25T00:59:39.231Z,100972.03
2022-08-25T01:01:43.415Z,100969.31
2022-08-25T01:03:45.490Z,100972.03
2022-08-25T01:05:48.823Z,100966.38
2022-08-25T01:07:52.722Z,100967.22
2022-08-25T01:10:01.366Z,100962.16
2022-08-25T01:12:03.677Z,100962.59
2022-08-25T01:14:08.663Z,100964.69
2022-08-25T01:16:11.693Z,100964.44
2022-08-25T01:18:16.032Z,100961.31
2022-08-25T01:20:20.276Z,100956.91
2022-08-25T01:22:22.379Z,100962.50
2022-08-25T01:24:45.307Z,100954.34
2022-08-25T01:26:47.243Z,100965.22
2022-08-25T01:29:10.451Z,100955.19
2022-08-25T01:31:23.537Z,100959.34
2022-08-25T01:33:28.356Z,100956.44
2022-08-25T01:35:31.354Z,100960.81
2022-08-25T01:37:35.749Z,100950.75
2022-08-25T01:39:37.680Z,100950.53
2022-08-25T01:41:59.900Z,100952.19
2022-08-25T01:44:06.089Z,100948.88
2022-08-25T01:46:33.160Z,100952.44
2022-08-25T01:48:37.112Z,100950.72
2022-08-25T01:50:41.933Z,100954.06
2022-08-25T01:53:09.274Z,100947.56
2022-08-25T01:55:11.309Z,100947.34
2022-08-25T01:57:15.420Z,100953.41
2022-08-25T01:59:24.317Z,100955.88
2022-08-25T02:01:28.044Z,100947.06
2022-08-25T02:03:30.218Z,100948.72
2022-08-25T02:05:35.453Z,100950.63
2022-08-25T02:07:38.417Z,100942.22
2022-08-25T02:09:44.448Z,100949.09
2022-08-25T02:11:47.256Z,100948.06
2022-08-25T02:13:49.279Z,100938.84
2022-08-25T02:15:54.567Z,100936.34
2022-08-25T02:17:57.437Z,100935.28
2022-08-25T02:19:59.702Z,100941.56
2022-08-25T02:22:02.403Z,100939.06
2022-08-25T02:24:06.643Z,100948.06
2022-08-25T02:26:10.054Z,100947.22
2022-08-25T02:28:12.115Z,100946.19
2022-08-25T02:30:15.627Z,100947.84
2022-08-25T02:32:17.513Z,100945.34
2022-08-25T02:34:19.558Z,100948.06
2022-08-25T02:36:24.556Z,100947.22
2022-08-25T02:38:34.065Z,100945.34
2022-08-25T02:40:38.224Z,100941.78
2022-08-25T02:42:42.677Z,100940.94
2022-08-25T02:44:44.791Z,100938.69
2022-08-25T02:46:48.668Z,100936.00
2022-08-25T02:48:53.502Z,100939.94
2022-08-25T02:50:55.684Z,100933.28
2022-08-25T02:52:57.646Z,100934.78
2022-08-25T02:54:59.585Z,100938.94
2022-08-25T02:57:01.660Z,100930.75
2022-08-25T02:59:04.321Z,100941.66
2022-08-25T03:01:12.091Z,100936.81
2022-08-25T03:03:14.542Z,100945.63
2022-08-25T03:05:19.820Z,100937.22
2022-08-25T03:07:22.256Z,100945.19
2022-08-25T03:09:32.202Z,100947.91
2022-08-25T03:11:38.524Z,100942.66
2022-08-25T03:13:42.495Z,100938.72
2022-08-25T03:15:46.421Z,100944.19
2022-08-25T03:17:51.846Z,100942.28
2022-08-25T03:19:54.849Z,100939.97
2022-08-25T03:21:59.723Z,100932.44
2022-08-25T03:24:01.865Z,100935.00
2022-08-25T03:26:23.174Z,100937.31
2022-08-25T03:28:30.095Z,100938.81
2022-08-25T03:30:35.058Z,100929.59
2022-08-25T03:32:37.610Z,100927.97
2022-08-25T03:34:39.699Z,100934.94
2022-08-25T03:36:45.207Z,100933.22
2022-08-25T03:38:47.141Z,100926.75
2022-08-25T03:40:51.774Z,100936.19
2022-08-25T03:42:55.654Z,100937.47
2022-08-25T03:44:57.575Z,100930.13
2022-08-25T03:46:59.515Z,100944.59
2022-08-25T03:49:06.975Z,100941.91
2022-08-25T03:51:08.959Z,100945.28
2022-08-25T03:53:10.920Z,100947.19
2022-08-25T03:55:15.118Z,100943.69
2022-08-25T03:57:17.258Z,100944.53
2022-08-25T03:59:20.166Z,100939.03
2022-08-25T04:01:22.631Z,100943.88
2022-08-25T04:03:26.919Z,100942.34
2022-08-25T04:05:38.764Z,100942.28
2022-08-25T04:07:40.852Z,100941.44
2022-08-25T04:09:44.920Z,100940.63
2022-08-25T04:11:48.963Z,100934.75
2022-08-25T04:13:59.315Z,100938.09
2022-08-25T04:16:01.275Z,100941.63
2022-08-25T04:18:04.499Z,100944.97
2022-08-25T04:20:09.609Z,100939.09
2022-08-25T04:22:11.659Z,100934.47
2022-08-25T04:24:16.421Z,100936.16
2022-08-25T04:26:43.367Z,100938.22
2022-08-25T04:28:47.235Z,100932.72
2022-08-25T04:30:52.032Z,100939.56
2022-08-25T04:32:54.197Z,100932.50
2022-08-25T04:34:57.166Z,100924.19
2022-08-25T04:37:01.884Z,100929.41
2022-08-25T04:39:04.065Z,100923.22
2022-08-25T04:41:10.958Z,100917.09
2022-08-25T04:43:15.629Z,100915.56
2022-08-25T04:45:17.676Z,100918.47
2022-08-25T04:47:23.914Z,100916.13
2022-08-25T04:49:27.186Z,100906.81
2022-08-25T04:51:41.226Z,100906.72
2022-08-25T04:53:43.850Z,100904.50
2022-08-25T04:55:48.395Z,100901.94
2022-08-25T04:57:51.309Z,100912.31
2022-08-25T04:59:58.295Z,100908.22
2022-08-25T05:02:03.453Z,100901.84
2022-08-25T05:04:14.473Z,100902.91
2022-08-25T05:06:17.725Z,100893.94
2022-08-25T05:08:19.675Z,100888.47
2022-08-25T05:10:22.828Z,100887.22
2022-08-25T05:12:24.926Z,100889.13
2022-08-25T05:14:27.920Z,100883.47
2022-08-25T05:16:31.822Z,100883.47
2022-08-25T05:18:36.105Z,100877.41
2022-08-25T05:20:38.475Z,100881.44
2022-08-25T05:22:40.470Z,100868.13
2022-08-25T05:24:42.446Z,100881.72
2022-08-25T05:26:44.594Z,100874.94
2022-08-25T05:28:47.459Z,100875.53
2022-08-25T05:30:52.185Z,100866.19
2022-08-25T05:32:54.468Z,100868.22
2022-08-25T05:34:56.610Z,100866.69
2022-08-25T05:37:00.365Z,100866.78
2022-08-25T05:39:02.366Z,100872.81
2022-08-25T05:41:06.865Z,100873.50
2022-08-25T05:43:08.956Z,100866.72
2022-08-25T05:45:16.710Z,100870.00
2022-08-25T05:47:23.931Z,100872.59
2022-08-25T05:49:25.864Z,100872.63
2022-08-25T05:51:29.177Z,100865.91
2022-08-25T05:53:35.522Z,100869.81
2022-08-25T05:55:38.396Z,100871.59
2022-08-25T05:57:41.441Z,100875.06
2022-08-25T05:59:43.538Z,100869.38
2022-08-25T06:02:03.982Z,100873.06
2022-08-25T06:04:06.729Z,100866.16
2022-08-25T06:06:16.280Z,100874.94
2022-08-25T06:08:18.203Z,100864.06
2022-08-25T06:10:29.461Z,100869.44
2022-08-25T06:12:36.252Z,100869.09
2022-08-25T06:14:38.343Z,100869.31
2022-08-25T06:16:41.252Z,100868.66
2022-08-25T06:18:44.205Z,100871.00
2022-08-25T06:20:46.110Z,100866.06
2022-08-25T06:22:55.501Z,100863.34
2022-08-25T06:25:05.875Z,100868.22
2022-08-25T06:27:07.905Z,100878.19
2022-08-25T06:29:10.906Z,100868.34
2022-08-25T06:31:12.987Z,100873.28
2022-08-25T06:33:16.270Z,100872.44
2022-08-25T06:35:20.434Z,100876.69
2022-08-25T06:37:25.143Z,100876.91
2022-08-25T06:39:27.589Z,100884.25
2022-08-25T06:41:37.100Z,100872.44
2022-08-25T06:43:45.055Z,100867.50
2022-08-25T06:45:51.346Z,100869.34
2022-08-25T06:47:54.865Z,100870.66
2022-08-25T06:49:56.921Z,100865.72
2022-08-25T06:51:59.101Z,100864.81
2022-08-25T06:54:01.025Z,100861.22
2022-08-25T06:56:06.635Z,100860.91
2022-08-25T06:58:14.000Z,100855.13
2022-08-25T07:00:17.794Z,100861.94
2022-08-25T07:02:23.899Z,100859.03
2022-08-25T07:04:27.090Z,100864.81
2022-08-25T07:06:33.059Z,100864.13
2022-08-25T07:08:36.182Z,100866.63
2022-08-25T07:10:39.339Z,100868.56
2022-08-25T07:12:41.617Z,100870.25
2022-08-25T07:14:58.155Z,100867.03
2022-08-25T07:17:10.598Z,100874.06
2022-08-25T07:19:21.047Z,100874.59
2022-08-25T07:21:25.346Z,100878.41
2022-08-25T07:23:30.817Z,100876.25
2022-08-25T07:25:35.810Z,100874.25
2022-08-25T07:27:41.264Z,100879.50
2022-08-25T07:29:44.770Z,100876.31
2022-08-25T07:31:47.347Z,100881.47
2022-08-25T07:34:10.073Z,100881.97
2022-08-25T07:36:20.827Z,100881.19
2022-08-25T07:38:25.697Z,100884.94
2022-08-25T07:40:32.062Z,100886.19
2022-08-25T07:42:36.198Z,100884.59
2022-08-25T07:44:40.261Z,100886.69
2022-08-25T07:46:45.633Z,100889.75
2022-08-25T07:48:53.334Z,100878.84
2022-08-25T07:50:56.565Z,100877.75
2022-08-25T07:52:59.597Z,100891.66
2022-08-25T07:55:02.442Z,100889.22
2022-08-25T07:57:06.193Z,100889.09
2022-08-25T07:59:13.964Z,100889.28
2022-08-25T08:01:25.846Z,100890.59
2022-08-25T08:03:45.177Z,100888.06
2022-08-25T08:05:52.476Z,100888.66
2022-08-25T08:07:55.396Z,100892.69
2022-08-25T08:10:25.710Z,100888.94
2022-08-25T08:12:20.260Z,100891.69
2022-08-25T08:14:25.471Z,100896.38
2022-08-25T08:16:29.983Z,100899.75
2022-08-25T08:18:43.547Z,100903.47
2022-08-25T08:20:48.588Z,100902.31
2022-08-25T08:22:50.738Z,100905.28
2022-08-25T08:24:54.450Z,100899.56
2022-08-25T08:26:59.388Z,100895.09
2022-08-25T08:29:02.007Z,100898.72
2022-08-25T08:31:04.866Z,100893.38
2022-08-25T08:33:11.185Z,100889.06
2022-08-25T08:35:15.557Z,100898.91
2022-08-25T08:37:17.545Z,100892.56
2022-08-25T08:39:19.637Z,100892.03
2022-08-25T08:42:10.864Z,100888.00
2022-08-25T08:44:35.417Z,100888.56
2022-08-25T08:47:17.425Z,100891.59
2022-08-25T08:49:38.071Z,100886.63
2022-08-25T08:51:56.571Z,100887.69
2022-08-25T08:54:15.611Z,100881.28
2022-08-25T08:56:30.743Z,100873.50
2022-08-25T08:58:40.234Z,100871.38
2022-08-25T09:00:52.148Z,100874.19
2022-08-25T09:03:06.209Z,100875.00
2022-08-25T09:05:17.061Z,100867.81
2022-08-25T09:07:28.262Z,100869.16
2022-08-25T09:09:35.749Z,100863.81
2022-08-25T09:11:52.253Z,100862.59
2022-08-25T09:14:04.387Z,100863.66
2022-08-25T09:16:36.184Z,100856.78
2022-08-25T09:18:41.070Z,100869.69
2022-08-25T09:21:17.769Z,100867.91
2022-08-25T09:23:41.799Z,100877.66
2022-08-25T09:25:54.097Z,100868.63
2022-08-25T09:28:05.343Z,100856.00
2022-08-25T09:30:11.486Z,100865.78
2022-08-25T09:32:15.193Z,100863.84
2022-08-25T09:34:32.133Z,100851.88
2022-08-25T09:36:37.401Z,100856.22
2022-08-25T09:38:40.467Z,100860.25
2022-08-25T09:40:54.571Z,100859.63
2022-08-25T09:43:00.483Z,100856.53
2022-08-25T09:45:05.218Z,100859.38
2022-08-25T09:47:22.372Z,100856.63
2022-08-25T09:49:41.413Z,100848.97
2022-08-25T09:51:44.485Z,100846.44
2022-08-25T09:53:52.618Z,100849.09
2022-08-25T09:56:04.699Z,100843.16
2022-08-25T09:58:22.252Z,100839.97
2022-08-25T10:00:26.567Z,100839.28
2022-08-25T10:02:36.466Z,100833.88
2022-08-25T10:04:41.656Z,100830.09
2022-08-25T10:06:47.601Z,100828.97
2022-08-25T10:08:49.578Z,100827.72
2022-08-25T10:10:57.865Z,100827.25
2022-08-25T10:13:03.663Z,100829.75
2022-08-25T10:15:29.466Z,100817.38
2022-08-25T10:17:33.760Z,100818.88
2022-08-25T10:19:35.731Z,100819.06
2022-08-25T10:21:42.094Z,100810.72
2022-08-25T10:23:56.090Z,100806.00
2022-08-25T10:26:04.565Z,100809.22
2022-08-25T10:28:27.966Z,100804.50
2022-08-25T10:31:09.653Z,100798.81
2022-08-25T10:33:36.454Z,100800.31
2022-08-25T10:35:59.090Z,100800.63
2022-08-25T10:38:09.595Z,100786.13
2022-08-25T10:40:23.691Z,100793.72
2022-08-25T10:42:39.486Z,100792.16
2022-08-25T10:45:19.512Z,100787.59
2022-08-25T10:47:50.616Z,100779.63
2022-08-25T10:50:02.721Z,100778.03
2022-08-25T10:52:12.843Z,100775.00
2022-08-25T10:54:28.221Z,100768.78
2022-08-25T10:56:37.025Z,100776.06
2022-08-25T10:59:00.107Z,100778.47
2022-08-25T11:01:28.898Z,100762.91
2022-08-25T11:03:41.361Z,100767.69
2022-08-25T11:06:04.772Z,100754.28
2022-08-25T11:08:34.147Z,100755.16
2022-08-25T11:10:53.308Z,100759.59
2022-08-25T11:13:04.431Z,100755.41
2022-08-25T11:15:18.207Z,100755.25
2022-08-25T11:17:27.660Z,100754.00
2022-08-25T11:19:38.146Z,100751.91
2022-08-25T11:21:45.012Z,100744.25
2022-08-25T11:23:53.812Z,100744.41
2022-08-25T11:26:11.359Z,100737.31
2022-08-25T11:28:22.273Z,100743.81
2022-08-25T11:30:26.014Z,100740.91
2022-08-25T11:32:33.506Z,100743.03
2022-08-25T11:34:43.027Z,100740.22
2022-08-25T11:37:00.075Z,100740.97
2022-08-25T11:39:14.279Z,100732.41
2022-08-25T11:41:36.149Z,100731.75
2022-08-25T11:44:02.631Z,100730.31
2022-08-25T11:46:19.732Z,100732.66
2022-08-25T11:48:40.310Z,100727.44
2022-08-25T11:50:59.894Z,100722.69
2022-08-25T11:53:28.895Z,100734.53
2022-08-25T11:55:39.044Z,100737.50
2022-08-25T11:57:44.967Z,100731.88
2022-08-25T11:59:49.920Z,100741.84
2022-08-25T12:01:57.556Z,100728.25
2022-08-25T12:04:31.904Z,100728.91
2022-08-25T12:06:36.950Z,100731.75
2022-08-25T12:09:00.057Z,100725.75
2022-08-25T12:11:11.246Z,100723.91
2022-08-25T12:13:33.797Z,100716.38
2022-08-25T12:15:44.507Z,100721.44
2022-08-25T12:18:10.388Z,100731.28
2022-08-25T12:20:13.298Z,100724.69
2022-08-25T12:22:16.032Z,100725.22
2022-08-25T12:24:48.115Z,100720.94
2022-08-25T12:27:06.761Z,100724.50
2022-08-25T12:29:30.826Z,100718.91
2022-08-25T12:31:51.248Z,100709.34
2022-08-25T12:34:19.648Z,100716.44
2022-08-25T12:36:34.694Z,100707.81
2022-08-25T12:38:51.938Z,100716.94
2022-08-25T12:41:22.297Z,100705.50
2022-08-25T12:43:37.869Z,100704.56
2022-08-25T12:45:46.577Z,100707.09
2022-08-25T12:47:50.198Z,100698.97
2022-08-25T12:49:52.429Z,100706.94
2022-08-25T12:52:00.869Z,100699.97
2022-08-25T12:54:25.826Z,100700.09
2022-08-25T12:56:39.139Z,100703.00
2022-08-25T12:59:03.661Z,100692.38
2022-08-25T13:01:35.235Z,100701.31
2022-08-25T13:04:09.396Z,100690.00
2022-08-25T13:06:32.085Z,100691.44
2022-08-25T13:09:28.780Z,100683.88
2022-08-25T13:11:43.401Z,100690.22
2022-08-25T13:14:29.055Z,100687.34
2022-08-25T13:16:33.730Z,100674.56
2022-08-25T13:18:39.800Z,100686.84
2022-08-25T13:20:43.998Z,100681.28
2022-08-25T13:22:56.676Z,100684.25
2022-08-25T13:25:00.753Z,100682.63
2022-08-25T13:27:06.251Z,100684.06
2022-08-25T13:29:09.287Z,100688.88
2022-08-25T13:31:22.419Z,100670.81
2022-08-25T13:33:25.280Z,100679.25
2022-08-25T13:35:30.968Z,100674.63
2022-08-25T13:37:35.564Z,100675.56
2022-08-25T13:39:55.261Z,100677.00
2022-08-25T13:41:58.533Z,100664.16
2022-08-25T13:44:06.305Z,100675.63
2022-08-25T13:46:19.603Z,100676.69
2022-08-25T13:48:40.183Z,100670.34
2022-08-25T13:50:52.911Z,100663.34
2022-08-25T13:52:58.494Z,100665.19
2022-08-25T13:55:08.307Z,100662.84
2022-08-25T13:57:24.972Z,100663.25
2022-08-25T13:59:35.442Z,100667.31
2022-08-25T14:01:51.130Z,100663.75
2022-08-25T14:03:56.757Z,100660.06
2022-08-25T14:06:15.571Z,100647.44
2022-08-25T14:08:33.627Z,100651.53
2022-08-25T14:10:40.275Z,100650.81
2022-08-25T14:12:46.521Z,100649.19
2022-08-25T14:14:59.219Z,100653.00
2022-08-25T14:17:28.752Z,100654.84
2022-08-25T14:19:35.664Z,100642.72
2022-08-25T14:21:40.816Z,100632.34
2022-08-25T14:23:44.155Z,100640.47
2022-08-25T14:25:47.427Z,100632.88
2022-08-25T14:28:09.113Z,100629.28
2022-08-25T14:30:13.444Z,100629.81
2022-08-25T14:32:17.170Z,100630.31
2022-08-25T14:34:23.994Z,100626.72
2022-08-25T14:36:29.972Z,100628.38
2022-08-25T14:38:34.172Z,100631.22
2022-08-25T14:40:36.293Z,100627.13
2022-08-25T14:42:46.446Z,100622.91
2022-08-25T14:44:50.936Z,100634.81
2022-08-25T14:46:56.848Z,100636.38
2022-08-25T14:49:04.668Z,100636.38
2022-08-25T14:51:07.464Z,100633.47
2022-08-25T14:53:11.347Z,100629.56
2022-08-25T14:55:17.341Z,100628.66
2022-08-25T14:57:33.352Z,100627.63
2022-08-25T14:59:35.300Z,100634.19
2022-08-25T15:01:37.533Z,100627.09
2022-08-25T15:03:43.410Z,100638.16
2022-08-25T15:05:49.304Z,100634.44
2022-08-25T15:08:13.176Z,100643.25
2022-08-25T15:10:15.230Z,100642.84
2022-08-25T15:12:26.049Z,100635.88
2022-08-25T15:14:41.160Z,100644.91
2022-08-25T15:16:46.961Z,100640.69
2022-08-25T15:18:57.007Z,100640.38
2022-08-25T15:20:58.970Z,100641.00
2022-08-25T15:23:01.717Z,100633.28
2022-08-25T15:25:04.257Z,100631.84
2022-08-25T15:27:12.489Z,100625.28
2022-08-25T15:29:14.538Z,100635.31
2022-08-25T15:31:20.606Z,100626.50
2022-08-25T15:33:23.183Z,100625.69
2022-08-25T15:35:27.689Z,100620.53
2022-08-25T15:37:31.994Z,100630.88
2022-08-25T15:39:35.495Z,100623.75
2022-08-25T15:41:38.536Z,100623.66
2022-08-25T15:43:40.644Z,100624.28
2022-08-25T15:45:42.940Z,100630.06
2022-08-25T15:47:45.252Z,100625.03
2022-08-25T15:49:47.475Z,100621.47
2022-08-25T15:51:49.472Z,100617.09
2022-08-25T15:53:53.106Z,100610.53
2022-08-25T15:56:04.663Z,100615.00
2022-08-25T15:58:08.918Z,100608.88
2022-08-25T16:00:13.716Z,100618.00
2022-08-25T16:02:19.080Z,100613.59
2022-08-25T16:04:26.797Z,100615.38
2022-08-25T16:06:28.688Z,100614.88
2022-08-25T16:08:30.868Z,100618.00
2022-08-25T16:10:39.428Z,100617.78
2022-08-25T16:12:42.703Z,100616.75
2022-08-25T16:14:46.137Z,100620.91
2022-08-25T16:16:49.117Z,100614.56
2022-08-25T16:18:51.527Z,100622.19
2022-08-25T16:20:55.761Z,100612.97
2022-08-25T16:23:00.831Z,100609.88
2022-08-25T16:25:03.500Z,100612.63
2022-08-25T16:27:11.069Z,100609.28
2022-08-25T16:29:16.666Z,100610.38
2022-08-25T16:31:19.551Z,100604.31
2022-08-25T16:33:21.895Z,100606.09
2022-08-25T16:35:24.068Z,100612.50
2022-08-25T16:37:26.508Z,100617.06
2022-08-25T16:39:28.982Z,100615.41
2022-08-25T16:41:35.751Z,100617.28
2022-08-25T16:43:38.535Z,100607.31
2022-08-25T16:45:43.560Z,100605.13
2022-08-25T16:47:45.720Z,100606.47
2022-08-25T16:49:48.418Z,100612.41
2022-08-25T16:51:57.357Z,100614.09
2022-08-25T16:54:22.120Z,100620.34
2022-08-25T16:56:27.869Z,100612.97
2022-08-25T16:58:30.101Z,100622.19
2022-08-25T17:00:33.439Z,100624.88
2022-08-25T17:02:35.614Z,100621.34
2022-08-25T17:04:37.635Z,100619.47
2022-08-25T17:06:49.350Z,100620.69
2022-08-25T17:08:53.560Z,100617.75
2022-08-25T17:11:16.941Z,100623.53
2022-08-25T17:13:19.026Z,100626.09
2022-08-25T17:15:24.073Z,100627.13
2022-08-25T17:17:27.038Z,100623.13
2022-08-25T17:19:29.530Z,100622.88
2022-08-25T17:21:37.947Z,100625.38
2022-08-25T17:23:44.626Z,100620.47
2022-08-25T17:25:46.622Z,100625.22
2022-08-25T17:27:54.471Z,100618.91
2022-08-25T17:29:56.406Z,100627.44
2022-08-25T17:32:00.613Z,100626.88
2022-08-25T17:34:02.668Z,100629.41
2022-08-25T17:36:07.292Z,100632.41
2022-08-25T17:38:09.705Z,100634.38
2022-08-25T17:40:12.594Z,100633.53
2022-08-25T17:42:15.921Z,100642.91
2022-08-25T17:44:18.028Z,100643.75
2022-08-25T17:46:20.150Z,100647.34
2022-08-25T17:48:24.914Z,100638.53
2022-08-25T17:50:28.319Z,100643.75
2022-08-25T17:52:30.812Z,100650.03
2022-08-25T17:54:33.758Z,100655.81
2022-08-25T17:56:35.734Z,100650.00
2022-08-25T17:58:38.167Z,100657.41
2022-08-25T18:00:44.084Z,100652.16
2022-08-25T18:02:47.169Z,100655.50
2022-08-25T18:04:49.421Z,100659.00
2022-08-25T18:06:52.531Z,100652.25
2022-08-25T18:09:01.885Z,100660.69
2022-08-25T18:11:06.612Z,100661.09
2022-08-25T18:13:12.418Z,100663.44
2022-08-25T18:15:14.635Z,100667.88
2022-08-25T18:17:21.860Z,100654.47
2022-08-25T18:19:24.977Z,100661.72
2022-08-25T18:21:30.537Z,100661.72
2022-08-25T18:23:32.889Z,100661.91
2022-08-25T18:25:34.883Z,100654.84
2022-08-25T18:27:37.999Z,100655.31
2022-08-25T18:29:41.595Z,100657.41
2022-08-25T18:31:47.357Z,100657.59
2022-08-25T18:33:50.861Z,100654.56
2022-08-25T18:35:57.417Z,100665.63
2022-08-25T18:38:25.816Z,100661.81
2022-08-25T18:40:29.542Z,100663.00
2022-08-25T18:42:31.634Z,100672.09
2022-08-25T18:44:35.152Z,100665.22
2022-08-25T18:46:42.375Z,100675.81
2022-08-25T18:48:46.234Z,100669.31
2022-08-25T18:50:54.513Z,100671.34
2022-08-25T18:52:56.787Z,100670.59
2022-08-25T18:54:59.731Z,100684.16
2022-08-25T18:57:02.956Z,100688.59
2022-08-25T18:59:05.112Z,100679.63
2022-08-25T19:01:08.729Z,100679.66
2022-08-25T19:03:16.247Z,100682.56
2022-08-25T19:05:23.260Z,100682.06
2022-08-25T19:07:25.741Z,100682.34
2022-08-25T19:09:28.242Z,100675.16
2022-08-25T19:11:30.636Z,100669.19
2022-08-25T19:13:34.601Z,100682.19
2022-08-25T19:15:43.663Z,100672.63
2022-08-25T19:17:45.932Z,100675.31
2022-08-25T19:19:48.075Z,100664.84
2022-08-25T19:21:50.861Z,100668.47
2022-08-25T19:23:54.132Z,100664.69
2022-08-25T19:25:56.349Z,100673.38
2022-08-25T19:28:03.249Z,100669.84
2022-08-25T19:30:09.570Z,100666.16
2022-08-25T19:32:12.755Z,100673.34
2022-08-25T19:34:28.370Z,100665.31
2022-08-25T19:36:35.878Z,100662.03
2022-08-25T19:38:39.106Z,100668.69
2022-08-25T19:40:43.115Z,100665.44
2022-08-25T19:42:54.670Z,100656.22
2022-08-25T19:44:56.956Z,100661.66
2022-08-25T19:46:59.629Z,100654.50
2022-08-25T19:49:15.470Z,100656.91
2022-08-25T19:51:19.293Z,100654.66
2022-08-25T19:53:24.299Z,100655.69
2022-08-25T19:55:26.511Z,100658.03
2022-08-25T19:57:42.412Z,100668.22
2022-08-25T19:59:48.400Z,100663.47
2022-08-25T20:01:53.081Z,100664.81
2022-08-25T20:03:55.569Z,100662.44
2022-08-25T20:05:59.397Z,100666.19
2022-08-25T20:08:04.012Z,100673.16
2022-08-25T20:10:14.122Z,100674.09
2022-08-25T20:12:18.035Z,100670.03
2022-08-25T20:14:21.643Z,100673.78
2022-08-25T20:16:24.907Z,100668.72
2022-08-25T20:18:28.606Z,100676.03
2022-08-25T20:20:34.655Z,100669.19
2022-08-25T20:22:38.954Z,100670.84
2022-08-25T20:24:51.036Z,100666.47
2022-08-25T20:27:05.898Z,100662.59
2022-08-25T20:29:09.800Z,100658.47
2022-08-25T20:31:13.479Z,100663.28
2022-08-25T20:33:22.841Z,100662.97
2022-08-25T20:35:31.312Z,100662.50
2022-08-25T20:37:34.510Z,100677.72
2022-08-25T20:39:40.654Z,100674.41
2022-08-25T20:41:42.655Z,100671.31
2022-08-25T20:43:56.766Z,100673.00
2022-08-25T20:46:01.269Z,100668.09
2022-08-25T20:48:03.815Z,100668.09
2022-08-25T20:50:09.858Z,100662.97
2022-08-25T20:52:15.486Z,100661.09
2022-08-25T20:54:17.881Z,100658.53
2022-08-25T20:56:20.646Z,100663.84
2022-08-25T20:58:22.878Z,100668.31
2022-08-25T21:00:25.631Z,100663.66
2022-08-25T21:02:29.665Z,100663.88
2022-08-25T21:04:32.067Z,100666.97
2022-08-25T21:06:37.831Z,100664.13
2022-08-25T21:08:46.842Z,100664.97
2022-08-25T21:10:49.065Z,100660.47
2022-08-25T21:12:53.379Z,100672.97
2022-08-25T21:14:55.637Z,100667.53
2022-08-25T21:16:58.943Z,100663.25
2022-08-25T21:19:00.998Z,100661.09
2022-08-25T21:21:14.776Z,100663.81
2022-08-25T21:23:17.675Z,100663.38
2022-08-25T21:25:21.952Z,100662.78
2022-08-25T21:27:25.908Z,100665.50
2022-08-25T21:29:34.110Z,100670.81
2022-08-25T21:31:36.554Z,100676.03
2022-08-25T21:33:40.026Z,100663.34
2022-08-25T21:35:42.941Z,100671.31
2022-08-25T21:37:44.953Z,100668.38
2022-08-25T21:39:48.103Z,100676.00
2022-08-25T21:41:51.124Z,100669.81
2022-08-25T21:44:02.293Z,100670.13
2022-08-25T21:46:05.088Z,100674.22
2022-08-25T21:48:11.654Z,100669.28
2022-08-25T21:50:14.616Z,100674.97
2022-08-25T21:52:16.723Z,100673.72
2022-08-25T21:54:20.678Z,100672.44
2022-08-25T21:56:26.277Z,100672.84
2022-08-25T21:58:28.453Z,100676.06
2022-08-25T22:00:34.051Z,100675.41
2022-08-25T22:02:36.067Z,100684.06
2022-08-25T22:04:39.755Z,100688.81
2022-08-25T22:06:41.834Z,100684.88
2022-08-25T22:08:46.381Z,100683.84
2022-08-25T22:10:48.635Z,100676.72
2022-08-25T22:12:57.672Z,100686.19
2022-08-25T22:15:06.137Z,100683.94
2022-08-25T22:17:12.279Z,100678.81
2022-08-25T22:19:19.670Z,100661.94
2022-08-25T22:21:22.801Z,100670.50
2022-08-25T22:23:28.146Z,100677.09
2022-08-25T22:25:30.436Z,100670.47
2022-08-25T22:27:33.618Z,100675.72
2022-08-25T22:29:35.911Z,100673.63
2022-08-25T22:31:38.004Z,100666.25
2022-08-25T22:33:40.477Z,100662.97
2022-08-25T22:35:43.622Z,100655.91
2022-08-25T22:37:47.204Z,100661.59
2022-08-25T22:39:49.269Z,100655.19
2022-08-25T22:41:57.653Z,100658.34
2022-08-25T22:44:04.926Z,100653.50
2022-08-25T22:46:12.777Z,100654.53
2022-08-25T22:48:14.974Z,100647.28
2022-08-25T22:50:18.113Z,100651.84
2022-08-25T22:52:20.852Z,100652.50
2022-08-25T22:54:34.241Z,100647.31
2022-08-25T22:56:37.880Z,100645.03
2022-08-25T22:58:40.658Z,100645.03
2022-08-25T23:00:42.773Z,100645.22
2022-08-25T23:02:53.475Z,100657.78
2022-08-25T23:04:57.981Z,100650.94
2022-08-25T23:07:05.502Z,100649.47
2022-08-25T23:09:09.142Z,100659.09
2022-08-25T23:11:12.699Z,100656.19
2022-08-25T23:13:23.034Z,100658.72
2022-08-25T23:15:36.489Z,100658.53
2022-08-25T23:17:38.955Z,100655.63
2022-08-25T23:19:40.899Z,100662.72
2022-08-25T23:22:02.117Z,100659.38
2022-08-25T23:24:06.227Z,100658.13
2022-08-25T23:26:09.791Z,100665.59
2022-08-25T23:28:12.809Z,100666.47
2022-08-25T23:30:15.066Z,100667.09
2022-08-25T23:32:28.070Z,100657.06
2022-08-25T23:34:30.519Z,100662.50
2022-08-25T23:36:35.929Z,100661.25
2022-08-25T23:38:41.867Z,100670.84
2022-08-25T23:40:48.896Z,100669.41
2022-08-25T23:42:52.908Z,100668.75
2022-08-25T23:44:56.196Z,100660.22
2022-08-25T23:46:58.272Z,100660.22
2022-08-25T23:49:00.440Z,100666.66
2022-08-25T23:51:03.844Z,100668.94
2022-08-25T23:53:05.861Z,100661.44
2022-08-25T23:55:09.106Z,100662.50
2022-08-25T23:57:11.771Z,100662.06
2022-08-25T23:59:16.053Z,100655.84
